Time;durP1;ratioP1;P1;durP2;ratioP2;P2;SDS_P1;SDS_P2;PMS_P1;PMS_P2;Temp;Humidity;BMP_temperature;BMP_pressure;BME280_temperature;BME280_humidity;BME280_pressure;Samples;Min_cycle;Max_cycle;Signal;HPM_P1;HPM_P2
2021/12/11 00:00:06;;;;;;;1.17;1.00;;;;;;;;;;5010028;28;20467;-71
2021/12/11 00:02:34;;;;;;;4.22;1.15;;;;;;;;;;5005796;28;20073;-71
2021/12/11 00:05:03;;;;;;;1.63;0.68;;;;;;;;;;5004898;28;20104;-72
2021/12/11 00:07:32;;;;;;;3.33;1.05;;;;;;;;;;5006983;28;20058;-72
2021/12/11 00:10:07;;;;;;;0.82;0.75;;;;;;;;;;5008498;28;20050;-72
2021/12/11 00:12:40;;;;;;;1.23;1.05;;;;;;;;;;5007928;28;20046;-71
2021/12/11 00:15:11;;;;;;;3.42;1.17;;;;;;;;;;5010909;28;20506;-71
2021/12/11 00:17:40;;;;;;;2.63;1.13;;;;;;;;;;5009901;28;20140;-72
2021/12/11 00:20:15;;;;;;;2.70;1.05;;;;;;;;;;5008718;28;20050;-71
2021/12/11 00:22:43;;;;;;;;;;;;;;;;;;5010227;28;20111;-71
2021/12/11 00:25:13;;;;;;;1.70;0.95;;;;;;;;;;5029780;28;19921;-71
2021/12/11 00:27:43;;;;;;;1.27;0.98;;;;;;;;;;5019427;28;20077;-72
2021/12/11 00:30:13;;;;;;;5.80;1.17;;;;;;;;;;5017690;28;20057;-72
2021/12/11 00:32:41;;;;;;;1.50;0.90;;;;;;;;;;5017862;28;20049;-72
2021/12/11 00:35:11;;;;;;;1.05;0.88;;;;;;;;;;5015785;28;20097;-74
2021/12/11 00:37:40;;;;;;;1.67;0.80;;;;;;;;;;5019883;28;20052;-71
2021/12/11 00:40:10;;;;;;;2.50;1.05;;;;;;;;;;5021808;28;20066;-71
2021/12/11 00:42:40;;;;;;;0.95;0.80;;;;;;;;;;5006983;28;20093;-73
2021/12/11 00:45:12;;;;;;;4.65;1.10;;;;;;;;;;5009853;28;20081;-72
2021/12/11 00:47:43;;;;;;;3.65;1.15;;;;;;;;;;5015320;28;20082;-72
2021/12/11 00:50:13;;;;;;;1.25;0.88;;;;;;;;;;5012910;28;20077;-72
2021/12/11 00:52:43;;;;;;;3.47;0.75;;;;;;;;;;5013153;28;20056;-71
2021/12/11 00:55:19;;;;;;;2.45;0.90;;;;;;;;;;5017729;28;20060;-71
2021/12/11 00:57:51;;;;;;;1.92;0.90;;;;;;;;;;5017646;28;20088;-71
2021/12/11 01:00:21;;;;;;;2.78;0.85;;;;;;;;;;5026951;28;20429;-71
2021/12/11 01:02:52;;;;;;;1.50;0.77;;;;;;;;;;5013218;28;20124;-71
2021/12/11 01:05:21;;;;;;;1.75;0.80;;;;;;;;;;5016632;28;20054;-72
2021/12/11 01:07:50;;;;;;;2.88;1.17;;;;;;;;;;5009843;28;20724;-71
2021/12/11 01:10:23;;;;;;;1.90;0.80;;;;;;;;;;5017036;28;20505;-72
2021/12/11 01:12:59;;;;;;;4.30;0.80;;;;;;;;;;5016181;28;20144;-72
2021/12/11 01:15:30;;;;;;;1.55;0.88;;;;;;;;;;5012764;28;20410;-71
2021/12/11 01:18:11;;;;;;;2.17;0.80;;;;;;;;;;5013959;28;20056;-72
2021/12/11 01:20:48;;;;;;;3.00;1.33;;;;;;;;;;5020643;28;20046;-71
2021/12/11 01:23:29;;;;;;;1.05;0.95;;;;;;;;;;5019232;28;20061;-71
2021/12/11 01:25:58;;;;;;;2.92;0.98;;;;;;;;;;5027332;28;20111;-71
2021/12/11 01:28:28;;;;;;;1.13;1.02;;;;;;;;;;5022973;28;20596;-71
2021/12/11 01:30:57;;;;;;;1.63;0.80;;;;;;;;;;5023260;28;20393;-71
2021/12/11 01:33:26;;;;;;;2.30;0.80;;;;;;;;;;5013966;28;20139;-71
2021/12/11 01:35:55;;;;;;;1.10;0.80;;;;;;;;;;5019331;28;20045;-72
2021/12/11 01:38:25;;;;;;;0.60;0.55;;;;;;;;;;5027879;28;20494;-71
2021/12/11 01:40:55;;;;;;;4.95;0.88;;;;;;;;;;5013376;28;20070;-72
2021/12/11 01:43:24;;;;;;;2.60;0.80;;;;;;;;;;5014492;28;20558;-71
2021/12/11 01:45:55;;;;;;;2.63;1.05;;;;;;;;;;5011540;28;20092;-71
2021/12/11 01:48:24;;;;;;;2.13;1.08;;;;;;;;;;5017175;28;20054;-71
2021/12/11 01:50:54;;;;;;;2.55;1.02;;;;;;;;;;5022399;28;20069;-71
2021/12/11 01:53:25;;;;;;;0.90;0.70;;;;;;;;;;5023650;28;20478;-70
2021/12/11 01:55:56;;;;;;;1.73;0.75;;;;;;;;;;5027217;28;20084;-70
2021/12/11 01:58:26;;;;;;;2.28;0.70;;;;;;;;;;5019105;28;20194;-71
2021/12/11 02:00:57;;;;;;;0.73;0.73;;;;;;;;;;5017483;28;20553;-71
2021/12/11 02:03:27;;;;;;;1.25;0.88;;;;;;;;;;5025982;28;20126;-72
2021/12/11 02:05:55;;;;;;;1.63;1.10;;;;;;;;;;5023021;28;20077;-71
2021/12/11 02:08:28;;;;;;;1.58;0.60;;;;;;;;;;5023524;28;20132;-70
2021/12/11 02:10:58;;;;;;;1.33;0.75;;;;;;;;;;5013947;28;20128;-73
2021/12/11 02:13:37;;;;;;;0.57;0.57;;;;;;;;;;5026948;28;20053;-71
2021/12/11 02:16:15;;;;;;;4.45;0.82;;;;;;;;;;5025017;28;20119;-70
2021/12/11 02:18:46;;;;;;;2.08;0.90;;;;;;;;;;5016563;28;20449;-70
2021/12/11 02:21:16;;;;;;;1.55;0.88;;;;;;;;;;5016459;28;20545;-71
2021/12/11 02:23:52;;;;;;;1.02;0.73;;;;;;;;;;5026508;28;20085;-70
2021/12/11 02:26:21;;;;;;;0.60;0.55;;;;;;;;;;5021765;28;20088;-70
2021/12/11 02:28:52;;;;;;;1.55;0.88;;;;;;;;;;5020047;28;20373;-71
2021/12/11 02:31:26;;;;;;;2.30;1.02;;;;;;;;;;5024185;28;20135;-70
2021/12/11 02:33:57;;;;;;;2.28;1.00;;;;;;;;;;5022944;28;20052;-70
2021/12/11 02:36:26;;;;;;;0.90;0.80;;;;;;;;;;5025484;28;20137;-71
2021/12/11 02:38:59;;;;;;;4.35;1.10;;;;;;;;;;5022487;28;20577;-70
2021/12/11 02:41:29;;;;;;;1.45;0.98;;;;;;;;;;5025204;28;20469;-71
2021/12/11 02:44:00;;;;;;;1.27;0.80;;;;;;;;;;5023481;28;20132;-71
2021/12/11 02:46:29;;;;;;;2.65;1.00;;;;;;;;;;5016121;28;20168;-70
2021/12/11 02:49:00;;;;;;;0.63;0.60;;;;;;;;;;5014525;28;20396;-71
2021/12/11 02:51:31;;;;;;;2.50;0.93;;;;;;;;;;5022511;28;20137;-70
2021/12/11 02:54:02;;;;;;;1.13;0.80;;;;;;;;;;5025228;28;20138;-70
2021/12/11 02:56:33;;;;;;;1.25;0.95;;;;;;;;;;5024464;28;20080;-71
2021/12/11 02:59:04;;;;;;;8.35;1.08;;;;;;;;;;5030464;28;20085;-70
2021/12/11 03:01:34;;;;;;;0.90;0.90;;;;;;;;;;5012611;28;20078;-70
2021/12/11 03:04:12;;;;;;;1.50;0.90;;;;;;;;;;5021396;28;20046;-71
2021/12/11 03:06:44;;;;;;;2.63;1.15;;;;;;;;;;5025918;28;20085;-70
2021/12/11 03:09:15;;;;;;;0.65;0.60;;;;;;;;;;5023567;28;20045;-71
2021/12/11 03:11:44;;;;;;;1.20;0.85;;;;;;;;;;5018190;28;20080;-70
2021/12/11 03:14:14;;;;;;;1.27;0.90;;;;;;;;;;5014514;28;20084;-70
2021/12/11 03:16:43;;;;;;;1.80;1.08;;;;;;;;;;5017449;28;20461;-70
2021/12/11 03:19:13;;;;;;;0.93;0.77;;;;;;;;;;5016190;28;20421;-70
2021/12/11 03:21:41;;;;;;;1.33;1.00;;;;;;;;;;5020850;28;20076;-70
2021/12/11 03:24:10;;;;;;;0.95;0.85;;;;;;;;;;5020337;28;20049;-71
2021/12/11 03:26:40;;;;;;;1.58;1.00;;;;;;;;;;5016166;28;20050;-70
2021/12/11 03:29:10;;;;;;;2.55;0.95;;;;;;;;;;5018618;28;20065;-71
2021/12/11 03:31:39;;;;;;;1.42;1.02;;;;;;;;;;5032980;28;20140;-70
2021/12/11 03:34:17;;;;;;;1.55;1.00;;;;;;;;;;3331758;28;10021627;-71
2021/12/11 03:36:46;;;;;;;1.23;0.82;;;;;;;;;;2591145;28;10001991;-71
2021/12/11 03:39:16;;;;;;;2.03;1.20;;;;;;;;;;5017906;28;20089;-71
2021/12/11 03:41:47;;;;;;;3.42;1.15;;;;;;;;;;5015683;28;20077;-73
2021/12/11 03:44:16;;;;;;;1.50;0.77;;;;;;;;;;5013588;28;20050;-71
2021/12/11 03:46:45;;;;;;;1.75;1.10;;;;;;;;;;5013496;28;20049;-71
2021/12/11 03:49:15;;;;;;;0.90;0.80;;;;;;;;;;5014251;28;20049;-70
2021/12/11 03:51:45;;;;;;;3.35;1.20;;;;;;;;;;5013569;28;20096;-70
2021/12/11 03:54:14;;;;;;;2.78;1.35;;;;;;;;;;5019200;28;20576;-70
2021/12/11 03:56:43;;;;;;;1.75;1.10;;;;;;;;;;5020984;28;20498;-70
2021/12/11 03:59:13;;;;;;;2.42;1.20;;;;;;;;;;5022663;28;20576;-70
2021/12/11 04:01:43;;;;;;;1.77;1.30;;;;;;;;;;5017069;28;20132;-70
2021/12/11 04:04:14;;;;;;;1.85;1.10;;;;;;;;;;5020575;28;20049;-70
2021/12/11 04:06:43;;;;;;;2.50;1.13;;;;;;;;;;5018098;28;20154;-71
2021/12/11 04:09:12;;;;;;;1.35;1.10;;;;;;;;;;5013456;28;20088;-71
2021/12/11 04:11:41;;;;;;;2.10;0.88;;;;;;;;;;5016604;28;20110;-70
2021/12/11 04:14:11;;;;;;;3.28;1.30;;;;;;;;;;5018577;28;20088;-71
2021/12/11 04:16:40;;;;;;;1.05;0.90;;;;;;;;;;5015214;28;20087;-71
2021/12/11 04:19:10;;;;;;;1.55;0.90;;;;;;;;;;5026070;28;20046;-71
2021/12/11 04:21:38;;;;;;;3.75;1.10;;;;;;;;;;5015825;28;20053;-71
2021/12/11 04:24:07;;;;;;;1.27;1.15;;;;;;;;;;5022684;28;20682;-71
2021/12/11 04:26:36;;;;;;;2.78;1.25;;;;;;;;;;5019071;28;20103;-71
2021/12/11 04:29:05;;;;;;;3.80;1.33;;;;;;;;;;5015123;28;20065;-71
2021/12/11 04:31:34;;;;;;;3.95;1.85;;;;;;;;;;5019243;28;20083;-70
2021/12/11 04:34:07;;;;;;;2.13;1.30;;;;;;;;;;5020446;28;20058;-71
2021/12/11 04:36:39;;;;;;;1.33;1.10;;;;;;;;;;5015354;28;20543;-71
2021/12/11 04:39:09;;;;;;;2.17;1.45;;;;;;;;;;5007726;28;20061;-71
2021/12/11 04:41:48;;;;;;;8.23;1.10;;;;;;;;;;5012998;28;20532;-71
2021/12/11 04:44:19;;;;;;;1.35;0.95;;;;;;;;;;5015736;28;20042;-72
2021/12/11 04:46:47;;;;;;;3.90;1.30;;;;;;;;;;5009796;28;20140;-72
2021/12/11 04:49:26;;;;;;;1.25;1.02;;;;;;;;;;5006659;28;20046;-72
2021/12/11 04:52:03;;;;;;;3.28;1.42;;;;;;;;;;5009324;28;20140;-72
2021/12/11 04:54:44;;;;;;;1.45;1.10;;;;;;;;;;5012836;28;20049;-72
2021/12/11 05:00:08;;;;;;;5.50;1.25;;;;;;;;;;5014981;28;20136;-72
2021/12/11 05:05:40;;;;;;;3.15;1.20;;;;;;;;;;5009082;28;20179;-71
2021/12/11 05:08:27;;;;;;;1.83;1.10;;;;;;;;;;5003738;28;20081;-72
2021/12/11 05:10:59;;;;;;;2.58;1.00;;;;;;;;;;5022087;28;20243;-72
2021/12/11 05:13:29;;;;;;;1.27;0.88;;;;;;;;;;5017187;28;20495;-72
2021/12/11 05:15:59;;;;;;;4.15;1.50;;;;;;;;;;5008818;28;20144;-72
2021/12/11 05:18:29;;;;;;;2.03;1.20;;;;;;;;;;5017987;28;20053;-72
2021/12/11 05:21:01;;;;;;;2.63;1.17;;;;;;;;;;5011114;28;20457;-71
2021/12/11 05:23:36;;;;;;;2.17;1.23;;;;;;;;;;5006963;28;20073;-72
2021/12/11 05:26:08;;;;;;;1.48;1.05;;;;;;;;;;5013354;28;20484;-71
2021/12/11 05:28:36;;;;;;;2.92;0.95;;;;;;;;;;5022916;28;20048;-72
2021/12/11 05:31:10;;;;;;;1.20;1.10;;;;;;;;;;5019035;28;20065;-71
2021/12/11 05:33:40;;;;;;;1.48;1.05;;;;;;;;;;5017631;28;20140;-72
2021/12/11 05:36:13;;;;;;;1.13;1.00;;;;;;;;;;5020773;28;20110;-73
2021/12/11 05:38:43;;;;;;;1.10;1.00;;;;;;;;;;5004102;28;20144;-72
2021/12/11 05:41:14;;;;;;;2.70;1.17;;;;;;;;;;5023138;28;20053;-72
2021/12/11 05:43:43;;;;;;;2.03;1.30;;;;;;;;;;5020132;28;20384;-73
2021/12/11 05:46:13;;;;;;;2.45;0.90;;;;;;;;;;5009783;28;20093;-72
2021/12/11 05:48:41;;;;;;;1.10;1.00;;;;;;;;;;5014390;28;20042;-72
2021/12/11 05:51:12;;;;;;;1.77;1.35;;;;;;;;;;5020043;28;20046;-74
2021/12/11 05:53:42;;;;;;;1.10;1.00;;;;;;;;;;5026715;28;20148;-72
2021/12/11 05:56:12;;;;;;;2.33;1.10;;;;;;;;;;5024987;28;20132;-72
2021/12/11 05:58:56;;;;;;;1.10;1.00;;;;;;;;;;5018608;28;20446;-72
2021/12/11 06:01:27;;;;;;;2.95;1.30;;;;;;;;;;5014347;28;20148;-72
2021/12/11 06:03:58;;;;;;;2.63;1.00;;;;;;;;;;5014819;28;20054;-72
2021/12/11 06:06:26;;;;;;;1.27;1.00;;;;;;;;;;5014299;28;20099;-73
2021/12/11 06:08:56;;;;;;;1.75;1.33;;;;;;;;;;5013332;28;20121;-72
2021/12/11 06:11:25;;;;;;;3.92;1.52;;;;;;;;;;5012737;28;20120;-73
2021/12/11 06:13:53;;;;;;;1.33;1.10;;;;;;;;;;5023823;28;20132;-72
2021/12/11 06:16:22;;;;;;;2.10;0.90;;;;;;;;;;5022339;28;20054;-72
2021/12/11 06:18:51;;;;;;;2.15;1.15;;;;;;;;;;5025777;28;20085;-71
2021/12/11 06:21:20;;;;;;;4.28;1.40;;;;;;;;;;5012637;28;20081;-71
2021/12/11 06:23:48;;;;;;;3.30;1.15;;;;;;;;;;5015927;28;20520;-71
2021/12/11 06:26:17;;;;;;;1.30;1.05;;;;;;;;;;5017243;28;20046;-72
2021/12/11 06:28:46;;;;;;;1.58;1.23;;;;;;;;;;5015023;28;20042;-71
2021/12/11 06:31:18;;;;;;;2.75;1.33;;;;;;;;;;5011136;28;20331;-72
2021/12/11 06:33:47;;;;;;;1.90;1.33;;;;;;;;;;5017747;28;20136;-72
2021/12/11 06:36:17;;;;;;;1.63;1.27;;;;;;;;;;5019247;28;20549;-72
2021/12/11 06:38:47;;;;;;;1.83;1.27;;;;;;;;;;5016595;28;20133;-72
2021/12/11 06:41:17;;;;;;;2.50;1.40;;;;;;;;;;5015479;28;20141;-72
2021/12/11 06:43:49;;;;;;;2.50;1.25;;;;;;;;;;5032415;28;20100;-72
2021/12/11 06:46:17;;;;;;;2.00;1.02;;;;;;;;;;5022806;28;20475;-71
2021/12/11 06:48:46;;;;;;;2.30;1.50;;;;;;;;;;5030290;28;20589;-72
2021/12/11 06:51:14;;;;;;;6.18;1.05;;;;;;;;;;5018332;28;20042;-71
2021/12/11 06:53:43;;;;;;;3.67;1.27;;;;;;;;;;5010904;28;20057;-72
2021/12/11 06:56:13;;;;;;;2.45;1.10;;;;;;;;;;5026491;28;20096;-71
2021/12/11 06:58:42;;;;;;;1.65;1.10;;;;;;;;;;5018378;28;20374;-71
2021/12/11 07:01:12;;;;;;;2.67;1.50;;;;;;;;;;5023640;28;20802;-70
2021/12/11 07:03:42;;;;;;;4.25;1.58;;;;;;;;;;5020913;28;20099;-71
2021/12/11 07:06:11;;;;;;;2.22;1.48;;;;;;;;;;5012657;28;20154;-71
2021/12/11 07:08:40;;;;;;;2.35;1.30;;;;;;;;;;5015362;28;20500;-71
2021/12/11 07:11:13;;;;;;;2.60;1.30;;;;;;;;;;5029174;28;20476;-71
2021/12/11 07:13:42;;;;;;;3.22;1.52;;;;;;;;;;5021217;28;20512;-71
2021/12/11 07:16:13;;;;;;;1.67;1.10;;;;;;;;;;5012815;28;20052;-71
2021/12/11 07:18:41;;;;;;;3.28;1.20;;;;;;;;;;5011793;28;20050;-71
2021/12/11 07:21:10;;;;;;;1.70;1.40;;;;;;;;;;5021105;28;20049;-70
2021/12/11 07:23:41;;;;;;;5.22;1.15;;;;;;;;;;5020123;28;20105;-71
2021/12/11 07:26:15;;;;;;;2.35;1.33;;;;;;;;;;5014318;28;20049;-70
2021/12/11 07:28:45;;;;;;;1.83;1.13;;;;;;;;;;5011289;28;20046;-71
2021/12/11 07:31:14;;;;;;;2.20;0.95;;;;;;;;;;5019079;28;20047;-70
2021/12/11 07:33:43;;;;;;;2.13;1.15;;;;;;;;;;5012436;28;20448;-70
2021/12/11 07:36:12;;;;;;;2.22;1.40;;;;;;;;;;5021858;28;20045;-71
2021/12/11 07:38:40;;;;;;;2.40;1.60;;;;;;;;;;5016157;28;20525;-72
2021/12/11 07:41:12;;;;;;;1.88;1.40;;;;;;;;;;5013473;28;20144;-70
2021/12/11 07:43:41;;;;;;;5.22;1.45;;;;;;;;;;5020109;28;20080;-70
2021/12/11 07:46:13;;;;;;;2.65;1.25;;;;;;;;;;5012905;28;20062;-71
2021/12/11 07:48:44;;;;;;;6.30;1.25;;;;;;;;;;5012656;28;20046;-71
2021/12/11 07:51:13;;;;;;;1.88;1.30;;;;;;;;;;5014602;28;20136;-73
2021/12/11 07:53:42;;;;;;;2.47;1.17;;;;;;;;;;5016642;28;20098;-72
2021/12/11 07:56:11;;;;;;;2.10;1.27;;;;;;;;;;5014826;28;20505;-74
2021/12/11 07:58:39;;;;;;;2.05;1.30;;;;;;;;;;5012009;28;20136;-72
2021/12/11 08:01:11;;;;;;;2.50;1.55;;;;;;;;;;5015249;28;20181;-72
2021/12/11 08:03:40;;;;;;;3.78;1.40;;;;;;;;;;5015585;28;20056;-72
2021/12/11 08:06:11;;;;;;;4.28;1.50;;;;;;;;;;5023901;28;20707;-73
2021/12/11 08:08:40;;;;;;;5.35;1.25;;;;;;;;;;5019645;28;20049;-73
2021/12/11 08:11:13;;;;;;;2.50;1.30;;;;;;;;;;5013981;28;20585;-74
2021/12/11 08:13:43;;;;;;;2.70;1.50;;;;;;;;;;5018063;28;20583;-72
2021/12/11 08:16:13;;;;;;;3.55;1.40;;;;;;;;;;5017425;28;20064;-73
2021/12/11 08:18:42;;;;;;;1.90;1.38;;;;;;;;;;5021024;28;20149;-73
2021/12/11 08:21:11;;;;;;;2.28;1.50;;;;;;;;;;5013769;28;20620;-73
2021/12/11 08:23:44;;;;;;;2.67;1.20;;;;;;;;;;5016410;28;20053;-74
2021/12/11 08:26:16;;;;;;;1.63;1.00;;;;;;;;;;5017215;28;20461;-73
2021/12/11 08:28:45;;;;;;;2.28;1.60;;;;;;;;;;5014250;28;20053;-75
2021/12/11 08:31:14;;;;;;;2.10;1.15;;;;;;;;;;5012522;28;20046;-72
2021/12/11 08:33:44;;;;;;;3.72;1.42;;;;;;;;;;5017274;28;20425;-72
2021/12/11 08:36:14;;;;;;;2.67;1.30;;;;;;;;;;5013630;28;20490;-72
2021/12/11 08:38:43;;;;;;;2.42;1.48;;;;;;;;;;5017937;28;21554;-72
2021/12/11 08:41:14;;;;;;;2.75;1.50;;;;;;;;;;5013274;28;20156;-72
2021/12/11 08:43:46;;;;;;;3.75;1.85;;;;;;;;;;5015518;28;20060;-72
2021/12/11 08:46:24;;;;;;;3.13;1.40;;;;;;;;;;5017589;28;20132;-73
2021/12/11 08:48:53;;;;;;;3.13;1.50;;;;;;;;;;5011518;28;20174;-73
2021/12/11 08:51:24;;;;;;;4.85;2.13;;;;;;;;;;5012954;28;20081;-73
2021/12/11 08:53:53;;;;;;;3.00;1.55;;;;;;;;;;5021350;28;20147;-72
2021/12/11 08:56:22;;;;;;;3.33;1.88;;;;;;;;;;5013170;28;20057;-72
2021/12/11 08:58:51;;;;;;;2.67;1.48;;;;;;;;;;5011828;28;20164;-72
2021/12/11 09:01:24;;;;;;;2.42;1.63;;;;;;;;;;5012865;28;20540;-72
2021/12/11 09:03:54;;;;;;;2.45;1.85;;;;;;;;;;5017588;28;20064;-72
2021/12/11 09:06:27;;;;;;;3.72;1.60;;;;;;;;;;5015056;28;20042;-72
2021/12/11 09:08:58;;;;;;;4.22;2.10;;;;;;;;;;5025919;28;20080;-72
2021/12/11 09:11:28;;;;;;;3.03;1.88;;;;;;;;;;5016703;28;20124;-72
2021/12/11 09:13:59;;;;;;;3.83;2.20;;;;;;;;;;5021600;28;20085;-71
2021/12/11 09:16:30;;;;;;;2.72;1.90;;;;;;;;;;5022264;28;20484;-72
2021/12/11 09:19:02;;;;;;;3.92;2.05;;;;;;;;;;5023776;28;20084;-72
2021/12/11 09:21:33;;;;;;;2.22;1.52;;;;;;;;;;5017419;28;20072;-71
2021/12/11 09:24:04;;;;;;;3.10;2.15;;;;;;;;;;5022609;28;20057;-71
2021/12/11 09:26:34;;;;;;;2.63;2.13;;;;;;;;;;5015580;28;20606;-72
2021/12/11 09:29:05;;;;;;;4.25;2.35;;;;;;;;;;5017312;28;20429;-72
2021/12/11 09:31:36;;;;;;;2.08;1.70;;;;;;;;;;5017024;28;20073;-71
2021/12/11 09:34:06;;;;;;;1.85;1.65;;;;;;;;;;5016207;28;20042;-71
2021/12/11 09:36:37;;;;;;;4.75;2.30;;;;;;;;;;5015116;28;20046;-71
2021/12/11 09:39:09;;;;;;;3.47;2.15;;;;;;;;;;5011132;28;20046;-72
2021/12/11 09:41:37;;;;;;;3.60;2.35;;;;;;;;;;5004162;28;20407;-73
2021/12/11 09:44:08;;;;;;;3.30;2.22;;;;;;;;;;5010271;28;20054;-71
2021/12/11 09:46:43;;;;;;;2.92;2.00;;;;;;;;;;5020865;28;20088;-71
2021/12/11 09:49:14;;;;;;;4.63;2.55;;;;;;;;;;5015287;28;20115;-72
2021/12/11 09:51:46;;;;;;;3.13;2.20;;;;;;;;;;5014501;28;20409;-72
2021/12/11 09:54:19;;;;;;;3.83;2.60;;;;;;;;;;5013728;28;20054;-72
2021/12/11 09:56:49;;;;;;;3.53;2.40;;;;;;;;;;5012201;28;20128;-72
2021/12/11 09:59:19;;;;;;;2.92;2.28;;;;;;;;;;5016911;28;20144;-71
2021/12/11 10:01:49;;;;;;;3.88;2.60;;;;;;;;;;5019425;28;20128;-72
2021/12/11 10:04:21;;;;;;;4.20;2.75;;;;;;;;;;5018230;28;20425;-72
2021/12/11 10:07:13;;;;;;;5.30;2.72;;;;;;;;;;5011591;28;20077;-72
2021/12/11 10:09:44;;;;;;;3.67;2.63;;;;;;;;;;5015493;28;20450;-72
2021/12/11 10:12:16;;;;;;;4.03;2.20;;;;;;;;;;5023973;28;20049;-72
2021/12/11 10:14:48;;;;;;;4.63;2.50;;;;;;;;;;5024678;28;20050;-72
2021/12/11 10:17:20;;;;;;;4.25;2.60;;;;;;;;;;5018585;28;20557;-72
2021/12/11 10:19:48;;;;;;;3.33;2.78;;;;;;;;;;5015460;28;21981;-71
2021/12/11 10:22:20;;;;;;;4.68;2.67;;;;;;;;;;5021086;28;20103;-72
2021/12/11 10:24:50;;;;;;;4.18;2.92;;;;;;;;;;5020368;28;20053;-71
2021/12/11 10:27:19;;;;;;;5.93;2.50;;;;;;;;;;5021438;28;21188;-71
2021/12/11 10:29:51;;;;;;;6.00;2.97;;;;;;;;;;5018793;28;20065;-71
2021/12/11 10:32:21;;;;;;;8.13;3.05;;;;;;;;;;5021493;28;20100;-71
2021/12/11 10:34:51;;;;;;;6.43;2.92;;;;;;;;;;5013907;28;20137;-70
2021/12/11 10:37:22;;;;;;;4.30;2.70;;;;;;;;;;5022191;28;20062;-72
2021/12/11 10:39:54;;;;;;;6.15;2.78;;;;;;;;;;5015709;28;20491;-72
2021/12/11 10:42:22;;;;;;;10.65;3.25;;;;;;;;;;5016614;28;20073;-72
2021/12/11 10:44:53;;;;;;;3.80;3.05;;;;;;;;;;5019944;28;20104;-72
2021/12/11 10:47:22;;;;;;;5.45;3.38;;;;;;;;;;5020615;28;20152;-72
2021/12/11 10:50:14;;;;;;;4.60;2.92;;;;;;;;;;5016726;28;20056;-71
2021/12/11 10:52:43;;;;;;;6.03;3.17;;;;;;;;;;5028866;28;20077;-71
2021/12/11 10:55:13;;;;;;;4.68;2.65;;;;;;;;;;5024310;28;20085;-72
2021/12/11 10:57:42;;;;;;;4.43;2.75;;;;;;;;;;5026069;28;21641;-73
2021/12/11 11:00:14;;;;;;;5.75;2.65;;;;;;;;;;5025181;28;20048;-72
2021/12/11 11:02:43;;;;;;;4.75;2.70;;;;;;;;;;5027099;28;20053;-73
2021/12/11 11:05:14;;;;;;;4.95;2.92;;;;;;;;;;5014939;28;20049;-71
2021/12/11 11:07:43;;;;;;;4.15;2.25;;;;;;;;;;5019176;28;20117;-71
2021/12/11 11:10:13;;;;;;;6.00;2.53;;;;;;;;;;5020679;28;20135;-72
2021/12/11 11:12:42;;;;;;;4.90;3.00;;;;;;;;;;5020535;28;20444;-70
2021/12/11 11:15:11;;;;;;;5.35;2.85;;;;;;;;;;5016583;28;20172;-71
2021/12/11 11:17:41;;;;;;;5.47;3.38;;;;;;;;;;5016576;28;20785;-71
2021/12/11 11:20:12;;;;;;;3.90;2.55;;;;;;;;;;5019166;28;20864;-71
2021/12/11 11:22:43;;;;;;;4.82;2.78;;;;;;;;;;5013714;28;20055;-71
2021/12/11 11:25:16;;;;;;;5.60;2.80;;;;;;;;;;5018510;28;20124;-71
2021/12/11 11:27:45;;;;;;;7.28;3.60;;;;;;;;;;5020959;28;20080;-71
2021/12/11 11:30:16;;;;;;;4.75;3.00;;;;;;;;;;5016259;28;20084;-71
2021/12/11 11:32:45;;;;;;;4.28;2.50;;;;;;;;;;5018865;28;20676;-72
2021/12/11 11:35:15;;;;;;;6.25;2.95;;;;;;;;;;5014334;28;20456;-72
2021/12/11 11:37:46;;;;;;;4.30;2.83;;;;;;;;;;5019449;28;20045;-72
2021/12/11 11:40:16;;;;;;;3.45;2.58;;;;;;;;;;5012751;28;20489;-72
2021/12/11 11:42:44;;;;;;;3.45;2.63;;;;;;;;;;5011038;28;20069;-72
2021/12/11 11:45:14;;;;;;;6.22;3.22;;;;;;;;;;5016214;28;20477;-72
2021/12/11 11:47:43;;;;;;;3.15;2.33;;;;;;;;;;5012911;28;20052;-72
2021/12/11 11:50:17;;;;;;;5.07;3.05;;;;;;;;;;5019528;28;20115;-71
2021/12/11 11:52:45;;;;;;;8.40;3.40;;;;;;;;;;5024137;28;20052;-72
2021/12/11 11:55:15;;;;;;;4.85;3.03;;;;;;;;;;5021463;28;20088;-72
2021/12/11 11:57:47;;;;;;;4.10;3.08;;;;;;;;;;5013054;28;20140;-68
2021/12/11 12:00:17;;;;;;;4.18;2.80;;;;;;;;;;5015246;28;20065;-68
2021/12/11 12:02:46;;;;;;;4.88;3.20;;;;;;;;;;5016020;28;20050;-69
2021/12/11 12:05:16;;;;;;;6.55;3.38;;;;;;;;;;5022294;28;20053;-68
2021/12/11 12:07:46;;;;;;;4.90;2.70;;;;;;;;;;5017546;28;20080;-68
2021/12/11 12:10:17;;;;;;;4.57;3.08;;;;;;;;;;5014610;28;20049;-68
2021/12/11 12:12:46;;;;;;;5.00;3.10;;;;;;;;;;5017838;28;20139;-69
2021/12/11 12:15:16;;;;;;;4.95;3.28;;;;;;;;;;5021139;28;20081;-69
2021/12/11 12:17:44;;;;;;;6.00;3.25;;;;;;;;;;5018046;28;20129;-69
2021/12/11 12:20:15;;;;;;;3.78;2.65;;;;;;;;;;5012885;28;20089;-69
2021/12/11 12:22:46;;;;;;;5.57;2.92;;;;;;;;;;5013325;28;20052;-69
2021/12/11 12:25:14;;;;;;;5.55;3.35;;;;;;;;;;4992680;28;20480;-68
2021/12/11 12:27:43;;;;;;;5.03;3.13;;;;;;;;;;5000233;28;20053;-68
2021/12/11 12:30:16;;;;;;;6.88;4.00;;;;;;;;;;5002017;28;20580;-68
2021/12/11 12:32:44;;;;;;;4.43;3.05;;;;;;;;;;4993255;28;20375;-69
2021/12/11 12:35:14;;;;;;;5.90;3.17;;;;;;;;;;5017839;28;20141;-69
2021/12/11 12:37:43;;;;;;;6.32;3.63;;;;;;;;;;5003883;28;20136;-68
2021/12/11 12:40:15;;;;;;;6.80;3.83;;;;;;;;;;5013192;28;20184;-68
2021/12/11 12:42:51;;;;;;;4.70;2.90;;;;;;;;;;5017174;28;20077;-68
2021/12/11 12:45:21;;;;;;;7.70;3.90;;;;;;;;;;5014410;28;20049;-68
2021/12/11 12:47:51;;;;;;;5.50;2.90;;;;;;;;;;5011081;28;20049;-68
2021/12/11 12:50:21;;;;;;;7.05;3.58;;;;;;;;;;5017433;28;20145;-68
2021/12/11 12:52:50;;;;;;;4.95;3.15;;;;;;;;;;5012229;28;20531;-68
2021/12/11 12:55:22;;;;;;;6.32;3.17;;;;;;;;;;5012294;28;20137;-68
2021/12/11 12:57:53;;;;;;;5.35;3.45;;;;;;;;;;5017242;28;20042;-68
2021/12/11 13:00:24;;;;;;;5.25;3.55;;;;;;;;;;5013505;28;20101;-70
2021/12/11 13:02:54;;;;;;;4.85;3.22;;;;;;;;;;5017454;28;20042;-68
2021/12/11 13:05:26;;;;;;;6.22;3.58;;;;;;;;;;5014453;28;20128;-69
2021/12/11 13:07:56;;;;;;;6.20;3.42;;;;;;;;;;5014016;28;20172;-69
2021/12/11 13:10:29;;;;;;;7.10;3.50;;;;;;;;;;5012895;28;20164;-69
2021/12/11 13:12:59;;;;;;;7.78;3.58;;;;;;;;;;5015031;28;20114;-68
2021/12/11 13:15:32;;;;;;;6.78;3.60;;;;;;;;;;5015430;28;20133;-68
2021/12/11 13:18:02;;;;;;;6.07;3.83;;;;;;;;;;5014879;28;20042;-69
2021/12/11 13:20:35;;;;;;;6.30;3.85;;;;;;;;;;5012275;28;20051;-70
2021/12/11 13:23:04;;;;;;;5.93;3.75;;;;;;;;;;5013300;28;20050;-69
2021/12/11 13:25:40;;;;;;;5.53;3.35;;;;;;;;;;5013244;28;20073;-68
2021/12/11 13:28:09;;;;;;;8.93;4.40;;;;;;;;;;5014089;28;20050;-68
2021/12/11 13:30:42;;;;;;;5.93;3.60;;;;;;;;;;5011409;28;20164;-69
2021/12/11 13:33:11;;;;;;;5.75;3.42;;;;;;;;;;5012902;28;20148;-69
2021/12/11 13:35:43;;;;;;;5.95;3.83;;;;;;;;;;5012633;28;20169;-68
2021/12/11 13:38:12;;;;;;;4.72;3.35;;;;;;;;;;5018042;28;20461;-68
2021/12/11 13:40:43;;;;;;;9.25;4.10;;;;;;;;;;5016200;28;20107;-68
2021/12/11 13:43:12;;;;;;;5.53;3.42;;;;;;;;;;5013960;28;20056;-69
2021/12/11 13:45:44;;;;;;;5.82;3.60;;;;;;;;;;5015121;28;20464;-69
2021/12/11 13:48:15;;;;;;;6.20;3.33;;;;;;;;;;5019104;28;20118;-68
2021/12/11 13:50:48;;;;;;;6.93;4.22;;;;;;;;;;5012257;28;20554;-69
2021/12/11 13:53:16;;;;;;;9.35;3.60;;;;;;;;;;5015087;28;20053;-68
2021/12/11 13:55:46;;;;;;;6.82;4.10;;;;;;;;;;5023361;28;20050;-68
2021/12/11 13:58:15;;;;;;;6.38;3.30;;;;;;;;;;5016621;28;20041;-68
2021/12/11 14:00:47;;;;;;;6.47;3.92;;;;;;;;;;5023536;28;20057;-68
2021/12/11 14:03:17;;;;;;;7.95;4.30;;;;;;;;;;5019445;28;20064;-68
2021/12/11 14:05:46;;;;;;;7.75;3.78;;;;;;;;;;5020355;28;20071;-69
2021/12/11 14:08:16;;;;;;;6.63;3.95;;;;;;;;;;5018931;28;20460;-68
2021/12/11 14:10:45;;;;;;;8.38;4.35;;;;;;;;;;5017708;28;20069;-68
2021/12/11 14:13:16;;;;;;;7.15;4.05;;;;;;;;;;5019090;28;20061;-68
2021/12/11 14:15:46;;;;;;;7.05;4.32;;;;;;;;;;5018369;28;20452;-68
2021/12/11 14:18:16;;;;;;;8.75;4.53;;;;;;;;;;5021808;28;20144;-68
2021/12/11 14:20:44;;;;;;;8.77;4.28;;;;;;;;;;5022861;28;20164;-69
2021/12/11 14:23:15;;;;;;;10.73;4.63;;;;;;;;;;5022287;28;20064;-69
2021/12/11 14:25:44;;;;;;;9.68;4.80;;;;;;;;;;5018753;28;20079;-68
2021/12/11 14:28:13;;;;;;;8.45;4.63;;;;;;;;;;5013310;28;20049;-68
2021/12/11 14:30:45;;;;;;;13.30;5.95;;;;;;;;;;5016104;28;20126;-68
2021/12/11 14:33:16;;;;;;;9.20;5.40;;;;;;;;;;5023048;28;20049;-68
2021/12/11 14:35:46;;;;;;;9.02;4.43;;;;;;;;;;5017756;28;20493;-68
2021/12/11 14:38:14;;;;;;;13.48;6.13;;;;;;;;;;5026728;28;20473;-68
2021/12/11 14:40:45;;;;;;;15.48;7.47;;;;;;;;;;5016467;28;20100;-68
2021/12/11 14:43:14;;;;;;;12.68;6.45;;;;;;;;;;5015834;28;20549;-67
2021/12/11 14:45:45;;;;;;;15.52;6.82;;;;;;;;;;5017761;28;20088;-68
2021/12/11 14:48:14;;;;;;;17.40;7.18;;;;;;;;;;5026572;28;20160;-68
2021/12/11 14:50:44;;;;;;;15.82;8.02;;;;;;;;;;5023457;28;20493;-68
2021/12/11 14:53:14;;;;;;;16.90;6.22;;;;;;;;;;5021083;28;20501;-68
2021/12/11 14:55:46;;;;;;;11.85;6.20;;;;;;;;;;5027031;28;20120;-68
2021/12/11 14:58:14;;;;;;;17.88;7.75;;;;;;;;;;5014700;28;20108;-68
2021/12/11 15:00:46;;;;;;;17.08;7.53;;;;;;;;;;5013821;28;20136;-69
2021/12/11 15:03:14;;;;;;;16.52;7.20;;;;;;;;;;5014259;28;20508;-68
2021/12/11 15:05:44;;;;;;;13.50;6.75;;;;;;;;;;5021449;28;20137;-68
2021/12/11 15:08:13;;;;;;;12.60;6.93;;;;;;;;;;5018437;28;20454;-67